sensor_id;sensor_type;location;lat;lon;timestamp;temperature;humidity
65291;SHT30;51893;59.754;10.110;2024-03-06T00:00:03;2.97;71.68
65291;SHT30;51893;59.754;10.110;2024-03-06T00:02:34;2.99;71.78
65291;SHT30;51893;59.754;10.110;2024-03-06T00:05:04;3.00;71.83
65291;SHT30;51893;59.754;10.110;2024-03-06T00:07:32;3.00;71.79
65291;SHT30;51893;59.754;10.110;2024-03-06T00:10:02;2.96;71.71
65291;SHT30;51893;59.754;10.110;2024-03-06T00:12:32;2.93;71.82
65291;SHT30;51893;59.754;10.110;2024-03-06T00:15:01;2.92;71.89
65291;SHT30;51893;59.754;10.110;2024-03-06T00:17:30;2.91;71.79
65291;SHT30;51893;59.754;10.110;2024-03-06T00:19:58;2.92;71.81
65291;SHT30;51893;59.754;10.110;2024-03-06T00:22:26;2.94;71.94
65291;SHT30;51893;59.754;10.110;2024-03-06T00:24:54;2.93;71.98
65291;SHT30;51893;59.754;10.110;2024-03-06T00:27:22;2.98;72.01
65291;SHT30;51893;59.754;10.110;2024-03-06T00:29:50;3.04;72.01
65291;SHT30;51893;59.754;10.110;2024-03-06T00:32:18;3.08;71.93
65291;SHT30;51893;59.754;10.110;2024-03-06T00:34:46;3.09;71.85
65291;SHT30;51893;59.754;10.110;2024-03-06T00:37:14;3.06;71.92
65291;SHT30;51893;59.754;10.110;2024-03-06T00:39:42;3.03;72.06
65291;SHT30;51893;59.754;10.110;2024-03-06T00:42:11;3.05;71.87
65291;SHT30;51893;59.754;10.110;2024-03-06T00:44:41;3.02;71.84
65291;SHT30;51893;59.754;10.110;2024-03-06T00:47:10;3.01;72.04
65291;SHT30;51893;59.754;10.110;2024-03-06T00:49:38;3.01;72.12
65291;SHT30;51893;59.754;10.110;2024-03-06T00:52:09;2.97;71.88
65291;SHT30;51893;59.754;10.110;2024-03-06T00:54:37;2.96;72.02
65291;SHT30;51893;59.754;10.110;2024-03-06T00:57:05;3.00;72.13
65291;SHT30;51893;59.754;10.110;2024-03-06T00:59:33;3.05;72.11
65291;SHT30;51893;59.754;10.110;2024-03-06T01:02:02;3.06;71.87
65291;SHT30;51893;59.754;10.110;2024-03-06T01:04:30;3.10;71.84
65291;SHT30;51893;59.754;10.110;2024-03-06T01:06:58;3.12;71.82
65291;SHT30;51893;59.754;10.110;2024-03-06T01:09:26;3.10;72.03
65291;SHT30;51893;59.754;10.110;2024-03-06T01:11:55;3.09;72.01
65291;SHT30;51893;59.754;10.110;2024-03-06T01:14:22;3.04;71.96
65291;SHT30;51893;59.754;10.110;2024-03-06T01:16:50;3.02;72.13
65291;SHT30;51893;59.754;10.110;2024-03-06T01:19:19;3.01;72.17
65291;SHT30;51893;59.754;10.110;2024-03-06T01:21:47;3.02;72.08
65291;SHT30;51893;59.754;10.110;2024-03-06T01:24:16;3.02;72.07
65291;SHT30;51893;59.754;10.110;2024-03-06T01:26:44;2.97;72.14
65291;SHT30;51893;59.754;10.110;2024-03-06T01:29:12;2.97;72.19
65291;SHT30;51893;59.754;10.110;2024-03-06T01:31:40;2.96;72.20
65291;SHT30;51893;59.754;10.110;2024-03-06T01:34:08;2.95;72.33
65291;SHT30;51893;59.754;10.110;2024-03-06T01:36:36;2.94;72.20
65291;SHT30;51893;59.754;10.110;2024-03-06T01:39:05;2.93;72.03
65291;SHT30;51893;59.754;10.110;2024-03-06T01:41:34;2.96;72.23
65291;SHT30;51893;59.754;10.110;2024-03-06T01:44:02;2.99;72.15
65291;SHT30;51893;59.754;10.110;2024-03-06T01:46:31;3.02;71.93
65291;SHT30;51893;59.754;10.110;2024-03-06T01:48:59;3.00;71.86
65291;SHT30;51893;59.754;10.110;2024-03-06T01:51:31;2.98;72.08
65291;SHT30;51893;59.754;10.110;2024-03-06T01:54:01;2.96;72.15
65291;SHT30;51893;59.754;10.110;2024-03-06T01:56:32;2.94;71.98
65291;SHT30;51893;59.754;10.110;2024-03-06T01:59:02;2.91;72.10
65291;SHT30;51893;59.754;10.110;2024-03-06T02:01:31;2.90;72.17
65291;SHT30;51893;59.754;10.110;2024-03-06T02:04:00;2.89;72.18
65291;SHT30;51893;59.754;10.110;2024-03-06T02:06:29;2.87;72.11
65291;SHT30;51893;59.754;10.110;2024-03-06T02:08:58;2.84;72.02
65291;SHT30;51893;59.754;10.110;2024-03-06T02:11:26;2.88;71.95
65291;SHT30;51893;59.754;10.110;2024-03-06T02:13:55;2.92;71.97
65291;SHT30;51893;59.754;10.110;2024-03-06T02:16:24;2.92;71.93
65291;SHT30;51893;59.754;10.110;2024-03-06T02:18:55;2.89;71.87
65291;SHT30;51893;59.754;10.110;2024-03-06T02:21:27;2.89;71.90
65291;SHT30;51893;59.754;10.110;2024-03-06T02:23:55;2.84;71.97
65291;SHT30;51893;59.754;10.110;2024-03-06T02:26:23;2.82;72.09
65291;SHT30;51893;59.754;10.110;2024-03-06T02:28:51;2.78;72.11
65291;SHT30;51893;59.754;10.110;2024-03-06T02:31:22;2.77;72.08
65291;SHT30;51893;59.754;10.110;2024-03-06T02:33:50;2.74;72.02
65291;SHT30;51893;59.754;10.110;2024-03-06T02:36:19;2.72;72.10
65291;SHT30;51893;59.754;10.110;2024-03-06T02:38:47;2.71;72.33
65291;SHT30;51893;59.754;10.110;2024-03-06T02:41:16;2.72;72.46
65291;SHT30;51893;59.754;10.110;2024-03-06T02:43:45;2.76;72.40
65291;SHT30;51893;59.754;10.110;2024-03-06T02:46:14;2.80;72.40
65291;SHT30;51893;59.754;10.110;2024-03-06T02:48:41;2.82;72.49
65291;SHT30;51893;59.754;10.110;2024-03-06T02:51:09;2.81;72.39
65291;SHT30;51893;59.754;10.110;2024-03-06T02:53:37;2.81;72.21
65291;SHT30;51893;59.754;10.110;2024-03-06T02:56:05;2.79;72.12
65291;SHT30;51893;59.754;10.110;2024-03-06T02:58:35;2.77;72.13
65291;SHT30;51893;59.754;10.110;2024-03-06T03:01:03;2.74;72.00
65291;SHT30;51893;59.754;10.110;2024-03-06T03:03:31;2.72;71.91
65291;SHT30;51893;59.754;10.110;2024-03-06T03:05:59;2.70;71.90
65291;SHT30;51893;59.754;10.110;2024-03-06T03:08:27;2.69;71.80
65291;SHT30;51893;59.754;10.110;2024-03-06T03:10:55;2.66;71.70
65291;SHT30;51893;59.754;10.110;2024-03-06T03:13:24;2.64;71.67
65291;SHT30;51893;59.754;10.110;2024-03-06T03:15:54;2.61;71.86
65291;SHT30;51893;59.754;10.110;2024-03-06T03:18:22;2.63;71.88
65291;SHT30;51893;59.754;10.110;2024-03-06T03:20:50;2.64;71.90
65291;SHT30;51893;59.754;10.110;2024-03-06T03:23:18;2.66;72.00
65291;SHT30;51893;59.754;10.110;2024-03-06T03:25:50;2.70;72.01
65291;SHT30;51893;59.754;10.110;2024-03-06T03:28:18;2.67;72.10
65291;SHT30;51893;59.754;10.110;2024-03-06T03:30:46;2.66;72.04
65291;SHT30;51893;59.754;10.110;2024-03-06T03:33:15;2.67;71.82
65291;SHT30;51893;59.754;10.110;2024-03-06T03:35:43;2.65;71.66
65291;SHT30;51893;59.754;10.110;2024-03-06T03:38:11;2.65;71.32
65291;SHT30;51893;59.754;10.110;2024-03-06T03:40:40;2.64;70.73
65291;SHT30;51893;59.754;10.110;2024-03-06T03:43:08;2.63;70.60
65291;SHT30;51893;59.754;10.110;2024-03-06T03:45:36;2.62;70.39
65291;SHT30;51893;59.754;10.110;2024-03-06T03:48:04;2.62;70.43
65291;SHT30;51893;59.754;10.110;2024-03-06T03:50:33;2.57;70.12
65291;SHT30;51893;59.754;10.110;2024-03-06T03:53:01;2.58;70.28
65291;SHT30;51893;59.754;10.110;2024-03-06T03:55:29;2.53;70.04
65291;SHT30;51893;59.754;10.110;2024-03-06T03:57:57;2.53;69.96
65291;SHT30;51893;59.754;10.110;2024-03-06T04:00:25;2.55;69.93
65291;SHT30;51893;59.754;10.110;2024-03-06T04:02:53;2.54;69.34
65291;SHT30;51893;59.754;10.110;2024-03-06T04:05:22;2.52;68.68
65291;SHT30;51893;59.754;10.110;2024-03-06T04:07:51;2.52;68.06
65291;SHT30;51893;59.754;10.110;2024-03-06T04:10:19;2.49;68.09
65291;SHT30;51893;59.754;10.110;2024-03-06T04:12:47;2.47;67.67
65291;SHT30;51893;59.754;10.110;2024-03-06T04:15:15;2.45;67.54
65291;SHT30;51893;59.754;10.110;2024-03-06T04:17:43;2.44;67.65
65291;SHT30;51893;59.754;10.110;2024-03-06T04:20:11;2.39;67.14
65291;SHT30;51893;59.754;10.110;2024-03-06T04:22:44;2.36;67.71
65291;SHT30;51893;59.754;10.110;2024-03-06T04:25:14;2.35;68.02
65291;SHT30;51893;59.754;10.110;2024-03-06T04:27:42;2.36;68.18
65291;SHT30;51893;59.754;10.110;2024-03-06T04:30:10;2.35;68.12
65291;SHT30;51893;59.754;10.110;2024-03-06T04:32:40;2.33;68.21
65291;SHT30;51893;59.754;10.110;2024-03-06T04:35:08;2.32;67.99
65291;SHT30;51893;59.754;10.110;2024-03-06T04:37:37;2.30;68.35
65291;SHT30;51893;59.754;10.110;2024-03-06T04:40:05;2.29;68.41
65291;SHT30;51893;59.754;10.110;2024-03-06T04:42:35;2.34;68.58
65291;SHT30;51893;59.754;10.110;2024-03-06T04:45:08;2.36;68.37
65291;SHT30;51893;59.754;10.110;2024-03-06T04:47:43;2.38;68.40
65291;SHT30;51893;59.754;10.110;2024-03-06T04:50:12;2.40;68.54
65291;SHT30;51893;59.754;10.110;2024-03-06T04:52:42;2.40;68.48
65291;SHT30;51893;59.754;10.110;2024-03-06T04:55:12;2.38;68.38
65291;SHT30;51893;59.754;10.110;2024-03-06T04:57:43;2.35;67.37
65291;SHT30;51893;59.754;10.110;2024-03-06T05:00:11;2.34;67.44
65291;SHT30;51893;59.754;10.110;2024-03-06T05:02:40;2.33;67.36
65291;SHT30;51893;59.754;10.110;2024-03-06T05:05:28;2.30;67.67
65291;SHT30;51893;59.754;10.110;2024-03-06T05:08:14;2.26;66.99
65291;SHT30;51893;59.754;10.110;2024-03-06T05:11:00;2.23;66.86
65291;SHT30;51893;59.754;10.110;2024-03-06T05:13:47;2.20;67.08
65291;SHT30;51893;59.754;10.110;2024-03-06T05:16:32;2.19;67.28
65291;SHT30;51893;59.754;10.110;2024-03-06T05:19:18;2.21;67.47
65291;SHT30;51893;59.754;10.110;2024-03-06T05:22:04;2.21;67.53
65291;SHT30;51893;59.754;10.110;2024-03-06T05:24:50;2.20;67.64
65291;SHT30;51893;59.754;10.110;2024-03-06T05:27:35;2.19;67.51
65291;SHT30;51893;59.754;10.110;2024-03-06T05:30:21;2.15;67.29
65291;SHT30;51893;59.754;10.110;2024-03-06T05:33:06;2.14;67.28
65291;SHT30;51893;59.754;10.110;2024-03-06T05:35:52;2.14;66.89
65291;SHT30;51893;59.754;10.110;2024-03-06T05:38:38;2.16;67.22
65291;SHT30;51893;59.754;10.110;2024-03-06T05:41:24;2.16;67.06
65291;SHT30;51893;59.754;10.110;2024-03-06T05:44:10;2.16;66.93
65291;SHT30;51893;59.754;10.110;2024-03-06T05:46:55;2.16;67.01
65291;SHT30;51893;59.754;10.110;2024-03-06T05:49:42;2.13;67.15
65291;SHT30;51893;59.754;10.110;2024-03-06T05:52:28;2.10;67.27
65291;SHT30;51893;59.754;10.110;2024-03-06T05:55:13;2.10;67.13
65291;SHT30;51893;59.754;10.110;2024-03-06T05:57:59;2.10;67.28
65291;SHT30;51893;59.754;10.110;2024-03-06T06:00:41;2.06;67.23
65291;SHT30;51893;59.754;10.110;2024-03-06T06:03:09;2.06;67.46
65291;SHT30;51893;59.754;10.110;2024-03-06T06:05:40;2.05;67.39
65291;SHT30;51893;59.754;10.110;2024-03-06T06:08:08;2.04;67.51
65291;SHT30;51893;59.754;10.110;2024-03-06T06:10:36;2.06;67.68
65291;SHT30;51893;59.754;10.110;2024-03-06T06:13:05;2.07;67.59
65291;SHT30;51893;59.754;10.110;2024-03-06T06:15:33;2.05;67.69
65291;SHT30;51893;59.754;10.110;2024-03-06T06:18:01;2.06;67.81
65291;SHT30;51893;59.754;10.110;2024-03-06T06:20:29;2.05;67.27
65291;SHT30;51893;59.754;10.110;2024-03-06T06:22:58;2.06;66.98
65291;SHT30;51893;59.754;10.110;2024-03-06T06:25:26;2.08;66.95
65291;SHT30;51893;59.754;10.110;2024-03-06T06:27:54;2.09;66.73
65291;SHT30;51893;59.754;10.110;2024-03-06T06:30:22;2.11;66.58
65291;SHT30;51893;59.754;10.110;2024-03-06T06:32:50;2.10;66.47
65291;SHT30;51893;59.754;10.110;2024-03-06T06:35:18;2.07;66.09
65291;SHT30;51893;59.754;10.110;2024-03-06T06:37:46;2.09;65.90
65291;SHT30;51893;59.754;10.110;2024-03-06T06:40:14;2.11;65.88
65291;SHT30;51893;59.754;10.110;2024-03-06T06:42:45;2.13;65.93
65291;SHT30;51893;59.754;10.110;2024-03-06T06:45:19;2.16;66.23
65291;SHT30;51893;59.754;10.110;2024-03-06T06:47:49;2.16;65.52
65291;SHT30;51893;59.754;10.110;2024-03-06T06:50:19;2.20;65.71
65291;SHT30;51893;59.754;10.110;2024-03-06T06:52:53;2.21;65.92
65291;SHT30;51893;59.754;10.110;2024-03-06T06:55:21;2.19;65.84
65291;SHT30;51893;59.754;10.110;2024-03-06T06:57:51;2.19;65.69
65291;SHT30;51893;59.754;10.110;2024-03-06T07:00:20;2.20;65.80
65291;SHT30;51893;59.754;10.110;2024-03-06T07:02:51;2.19;66.18
65291;SHT30;51893;59.754;10.110;2024-03-06T07:05:18;2.23;65.82
65291;SHT30;51893;59.754;10.110;2024-03-06T07:07:47;2.26;66.14
65291;SHT30;51893;59.754;10.110;2024-03-06T07:10:18;2.28;66.42
65291;SHT30;51893;59.754;10.110;2024-03-06T07:12:46;2.29;66.69
65291;SHT30;51893;59.754;10.110;2024-03-06T07:15:14;2.30;66.38
65291;SHT30;51893;59.754;10.110;2024-03-06T07:17:42;2.32;65.74
65291;SHT30;51893;59.754;10.110;2024-03-06T07:20:10;2.34;65.72
65291;SHT30;51893;59.754;10.110;2024-03-06T07:22:39;2.39;66.02
65291;SHT30;51893;59.754;10.110;2024-03-06T07:25:07;2.41;66.06
65291;SHT30;51893;59.754;10.110;2024-03-06T07:27:37;2.43;66.38
65291;SHT30;51893;59.754;10.110;2024-03-06T07:30:05;2.43;66.05
65291;SHT30;51893;59.754;10.110;2024-03-06T07:32:36;2.43;65.41
65291;SHT30;51893;59.754;10.110;2024-03-06T07:35:05;2.43;65.13
65291;SHT30;51893;59.754;10.110;2024-03-06T07:37:34;2.43;65.35
65291;SHT30;51893;59.754;10.110;2024-03-06T07:40:02;2.46;65.63
65291;SHT30;51893;59.754;10.110;2024-03-06T07:42:32;2.49;65.62
65291;SHT30;51893;59.754;10.110;2024-03-06T07:45:00;2.58;66.01
65291;SHT30;51893;59.754;10.110;2024-03-06T07:47:28;2.58;65.79
65291;SHT30;51893;59.754;10.110;2024-03-06T07:49:57;2.54;65.06
65291;SHT30;51893;59.754;10.110;2024-03-06T07:52:24;2.56;65.49
65291;SHT30;51893;59.754;10.110;2024-03-06T07:54:52;2.56;65.40
65291;SHT30;51893;59.754;10.110;2024-03-06T07:57:19;2.56;65.49
65291;SHT30;51893;59.754;10.110;2024-03-06T07:59:45;2.59;65.42
65291;SHT30;51893;59.754;10.110;2024-03-06T08:02:13;2.63;65.57
65291;SHT30;51893;59.754;10.110;2024-03-06T08:04:40;2.64;65.05
65291;SHT30;51893;59.754;10.110;2024-03-06T08:07:07;2.67;64.72
65291;SHT30;51893;59.754;10.110;2024-03-06T08:09:34;2.67;64.09
65291;SHT30;51893;59.754;10.110;2024-03-06T08:12:01;2.66;64.06
65291;SHT30;51893;59.754;10.110;2024-03-06T08:14:29;2.66;63.84
65291;SHT30;51893;59.754;10.110;2024-03-06T08:16:56;2.71;64.37
65291;SHT30;51893;59.754;10.110;2024-03-06T08:19:23;2.74;64.44
65291;SHT30;51893;59.754;10.110;2024-03-06T08:21:51;2.77;64.31
65291;SHT30;51893;59.754;10.110;2024-03-06T08:24:18;2.82;64.42
65291;SHT30;51893;59.754;10.110;2024-03-06T08:26:45;2.85;63.86
65291;SHT30;51893;59.754;10.110;2024-03-06T08:29:12;2.88;63.72
65291;SHT30;51893;59.754;10.110;2024-03-06T08:31:39;2.93;64.15
65291;SHT30;51893;59.754;10.110;2024-03-06T08:34:07;2.95;63.53
65291;SHT30;51893;59.754;10.110;2024-03-06T08:36:34;2.92;63.42
65291;SHT30;51893;59.754;10.110;2024-03-06T08:39:01;2.93;63.23
65291;SHT30;51893;59.754;10.110;2024-03-06T08:41:28;2.92;62.88
65291;SHT30;51893;59.754;10.110;2024-03-06T08:43:57;2.94;63.23
65291;SHT30;51893;59.754;10.110;2024-03-06T08:46:24;3.00;63.66
65291;SHT30;51893;59.754;10.110;2024-03-06T08:48:51;3.09;64.34
65291;SHT30;51893;59.754;10.110;2024-03-06T08:51:18;3.18;64.79
65291;SHT30;51893;59.754;10.110;2024-03-06T08:53:45;3.24;64.48
65291;SHT30;51893;59.754;10.110;2024-03-06T08:56:15;3.27;64.33
65291;SHT30;51893;59.754;10.110;2024-03-06T08:58:42;3.34;64.61
65291;SHT30;51893;59.754;10.110;2024-03-06T09:01:10;3.39;64.67
65291;SHT30;51893;59.754;10.110;2024-03-06T09:03:37;3.43;64.56
65291;SHT30;51893;59.754;10.110;2024-03-06T09:06:04;3.45;64.66
65291;SHT30;51893;59.754;10.110;2024-03-06T09:08:31;3.46;64.73
65291;SHT30;51893;59.754;10.110;2024-03-06T09:10:58;3.49;64.86
65291;SHT30;51893;59.754;10.110;2024-03-06T09:13:26;3.50;64.46
65291;SHT30;51893;59.754;10.110;2024-03-06T09:15:53;3.54;64.64
65291;SHT30;51893;59.754;10.110;2024-03-06T09:18:20;3.52;63.43
65291;SHT30;51893;59.754;10.110;2024-03-06T09:20:47;3.49;63.54
65291;SHT30;51893;59.754;10.110;2024-03-06T09:23:14;3.50;63.47
65291;SHT30;51893;59.754;10.110;2024-03-06T09:25:42;3.55;64.34
65291;SHT30;51893;59.754;10.110;2024-03-06T09:28:09;3.55;64.15
65291;SHT30;51893;59.754;10.110;2024-03-06T09:30:36;3.58;64.14
65291;SHT30;51893;59.754;10.110;2024-03-06T09:33:03;3.60;64.09
65291;SHT30;51893;59.754;10.110;2024-03-06T09:35:31;3.63;64.08
65291;SHT30;51893;59.754;10.110;2024-03-06T09:37:59;3.62;63.60
65291;SHT30;51893;59.754;10.110;2024-03-06T09:40:28;3.63;64.25
65291;SHT30;51893;59.754;10.110;2024-03-06T09:42:56;3.63;64.11
65291;SHT30;51893;59.754;10.110;2024-03-06T09:45:23;3.60;63.18
65291;SHT30;51893;59.754;10.110;2024-03-06T09:47:50;3.66;63.80
65291;SHT30;51893;59.754;10.110;2024-03-06T09:50:22;3.83;63.95
65291;SHT30;51893;59.754;10.110;2024-03-06T09:52:54;3.93;63.39
65291;SHT30;51893;59.754;10.110;2024-03-06T09:55:23;4.13;63.64
65291;SHT30;51893;59.754;10.110;2024-03-06T09:57:52;4.25;62.88
65291;SHT30;51893;59.754;10.110;2024-03-06T10:00:20;4.31;62.91
65291;SHT30;51893;59.754;10.110;2024-03-06T10:02:54;4.45;63.00
65291;SHT30;51893;59.754;10.110;2024-03-06T10:05:28;4.51;62.27
65291;SHT30;51893;59.754;10.110;2024-03-06T10:07:57;4.64;62.72
65291;SHT30;51893;59.754;10.110;2024-03-06T10:10:26;4.64;61.20
65291;SHT30;51893;59.754;10.110;2024-03-06T10:12:54;4.59;61.73
65291;SHT30;51893;59.754;10.110;2024-03-06T10:15:23;4.70;61.44
65291;SHT30;51893;59.754;10.110;2024-03-06T10:18:06;4.60;60.45
65291;SHT30;51893;59.754;10.110;2024-03-06T10:20:42;4.65;61.25
65291;SHT30;51893;59.754;10.110;2024-03-06T10:23:13;4.90;61.78
65291;SHT30;51893;59.754;10.110;2024-03-06T10:25:48;4.96;59.98
65291;SHT30;51893;59.754;10.110;2024-03-06T10:28:19;4.90;59.62
65291;SHT30;51893;59.754;10.110;2024-03-06T10:31:01;4.81;59.95
65291;SHT30;51893;59.754;10.110;2024-03-06T10:33:34;4.94;60.50
65291;SHT30;51893;59.754;10.110;2024-03-06T10:36:01;5.17;60.89
65291;SHT30;51893;59.754;10.110;2024-03-06T10:38:31;5.20;59.79
65291;SHT30;51893;59.754;10.110;2024-03-06T10:41:07;5.32;60.65
65291;SHT30;51893;59.754;10.110;2024-03-06T10:43:42;5.43;60.65
65291;SHT30;51893;59.754;10.110;2024-03-06T10:46:15;5.46;60.98
65291;SHT30;51893;59.754;10.110;2024-03-06T10:48:46;5.45;60.14
65291;SHT30;51893;59.754;10.110;2024-03-06T10:51:16;5.39;60.47
65291;SHT30;51893;59.754;10.110;2024-03-06T10:53:45;5.36;60.74
65291;SHT30;51893;59.754;10.110;2024-03-06T10:56:13;5.29;60.64
65291;SHT30;51893;59.754;10.110;2024-03-06T10:58:40;5.26;60.50
65291;SHT30;51893;59.754;10.110;2024-03-06T11:01:10;5.37;60.83
65291;SHT30;51893;59.754;10.110;2024-03-06T11:03:39;5.45;60.41
65291;SHT30;51893;59.754;10.110;2024-03-06T11:06:07;5.61;60.64
65291;SHT30;51893;59.754;10.110;2024-03-06T11:08:34;5.64;59.22
65291;SHT30;51893;59.754;10.110;2024-03-06T11:11:19;5.60;59.58
65291;SHT30;51893;59.754;10.110;2024-03-06T11:13:55;5.74;59.85
65291;SHT30;51893;59.754;10.110;2024-03-06T11:16:27;5.76;59.57
65291;SHT30;51893;59.754;10.110;2024-03-06T11:19:06;5.67;59.55
65291;SHT30;51893;59.754;10.110;2024-03-06T11:21:45;5.75;59.68
65291;SHT30;51893;59.754;10.110;2024-03-06T11:24:15;5.84;59.82
65291;SHT30;51893;59.754;10.110;2024-03-06T11:27:03;6.07;59.48
65291;SHT30;51893;59.754;10.110;2024-03-06T11:32:30;6.36;59.23
65291;SHT30;51893;59.754;10.110;2024-03-06T11:34:58;6.51;59.01
65291;SHT30;51893;59.754;10.110;2024-03-06T11:37:26;6.64;58.96
65291;SHT30;51893;59.754;10.110;2024-03-06T11:39:59;6.50;57.57
65291;SHT30;51893;59.754;10.110;2024-03-06T11:42:35;6.38;57.88
65291;SHT30;51893;59.754;10.110;2024-03-06T11:45:15;6.43;57.31
65291;SHT30;51893;59.754;10.110;2024-03-06T11:48:00;6.61;58.32
65291;SHT30;51893;59.754;10.110;2024-03-06T11:50:30;6.80;58.35
65291;SHT30;51893;59.754;10.110;2024-03-06T11:52:58;6.98;58.65
65291;SHT30;51893;59.754;10.110;2024-03-06T11:55:26;7.12;58.16
65291;SHT30;51893;59.754;10.110;2024-03-06T11:57:53;7.17;57.69
65291;SHT30;51893;59.754;10.110;2024-03-06T12:00:21;7.24;57.41
65291;SHT30;51893;59.754;10.110;2024-03-06T12:02:51;7.25;57.30
65291;SHT30;51893;59.754;10.110;2024-03-06T12:05:18;7.14;57.21
65291;SHT30;51893;59.754;10.110;2024-03-06T12:07:46;6.91;57.16
65291;SHT30;51893;59.754;10.110;2024-03-06T12:10:17;6.66;57.68
65291;SHT30;51893;59.754;10.110;2024-03-06T12:12:45;6.47;58.34
65291;SHT30;51893;59.754;10.110;2024-03-06T12:15:14;6.36;58.40
65291;SHT30;51893;59.754;10.110;2024-03-06T12:17:45;6.21;58.57
65291;SHT30;51893;59.754;10.110;2024-03-06T12:20:15;6.04;58.50
65291;SHT30;51893;59.754;10.110;2024-03-06T12:22:52;5.87;58.61
65291;SHT30;51893;59.754;10.110;2024-03-06T12:25:23;5.71;59.20
65291;SHT30;51893;59.754;10.110;2024-03-06T12:27:53;5.64;59.47
65291;SHT30;51893;59.754;10.110;2024-03-06T12:30:22;5.57;59.29
65291;SHT30;51893;59.754;10.110;2024-03-06T12:32:59;5.51;59.48
65291;SHT30;51893;59.754;10.110;2024-03-06T12:35:32;5.50;59.47
65291;SHT30;51893;59.754;10.110;2024-03-06T12:37:59;5.47;59.87
65291;SHT30;51893;59.754;10.110;2024-03-06T12:40:26;5.46;59.97
65291;SHT30;51893;59.754;10.110;2024-03-06T12:42:55;5.43;59.87
65291;SHT30;51893;59.754;10.110;2024-03-06T12:45:25;5.44;60.44
65291;SHT30;51893;59.754;10.110;2024-03-06T12:47:54;5.48;60.55
65291;SHT30;51893;59.754;10.110;2024-03-06T12:50:21;5.50;60.43
65291;SHT30;51893;59.754;10.110;2024-03-06T12:52:50;5.51;60.38
65291;SHT30;51893;59.754;10.110;2024-03-06T12:55:19;5.51;60.35
65291;SHT30;51893;59.754;10.110;2024-03-06T12:57:46;5.52;60.43
65291;SHT30;51893;59.754;10.110;2024-03-06T13:00:14;5.54;60.42
65291;SHT30;51893;59.754;10.110;2024-03-06T13:02:45;5.55;60.18
65291;SHT30;51893;59.754;10.110;2024-03-06T13:05:12;5.58;60.26
65291;SHT30;51893;59.754;10.110;2024-03-06T13:07:40;5.51;59.97
65291;SHT30;51893;59.754;10.110;2024-03-06T13:10:10;5.47;59.85
65291;SHT30;51893;59.754;10.110;2024-03-06T13:12:38;5.48;59.75
65291;SHT30;51893;59.754;10.110;2024-03-06T13:15:05;5.51;60.04
65291;SHT30;51893;59.754;10.110;2024-03-06T13:17:35;5.54;60.02
65291;SHT30;51893;59.754;10.110;2024-03-06T13:20:02;5.52;59.51
65291;SHT30;51893;59.754;10.110;2024-03-06T13:22:30;5.56;60.07
65291;SHT30;51893;59.754;10.110;2024-03-06T13:24:58;5.55;59.53
65291;SHT30;51893;59.754;10.110;2024-03-06T13:27:25;5.58;59.81
65291;SHT30;51893;59.754;10.110;2024-03-06T13:29:52;5.66;60.27
65291;SHT30;51893;59.754;10.110;2024-03-06T13:32:20;5.72;59.75
65291;SHT30;51893;59.754;10.110;2024-03-06T13:34:47;5.70;59.60
65291;SHT30;51893;59.754;10.110;2024-03-06T13:37:14;5.66;59.58
65291;SHT30;51893;59.754;10.110;2024-03-06T13:39:43;5.61;59.66
65291;SHT30;51893;59.754;10.110;2024-03-06T13:42:10;5.63;59.80
65291;SHT30;51893;59.754;10.110;2024-03-06T13:44:37;5.64;59.75
65291;SHT30;51893;59.754;10.110;2024-03-06T13:47:04;5.63;59.45
65291;SHT30;51893;59.754;10.110;2024-03-06T13:49:38;5.62;59.42
65291;SHT30;51893;59.754;10.110;2024-03-06T13:52:08;5.61;59.36
65291;SHT30;51893;59.754;10.110;2024-03-06T13:54:37;5.58;59.29
65291;SHT30;51893;59.754;10.110;2024-03-06T13:57:07;5.55;59.41
65291;SHT30;51893;59.754;10.110;2024-03-06T13:59:35;5.53;59.33
65291;SHT30;51893;59.754;10.110;2024-03-06T14:02:02;5.56;59.65
65291;SHT30;51893;59.754;10.110;2024-03-06T14:04:30;5.58;59.37
65291;SHT30;51893;59.754;10.110;2024-03-06T14:06:57;5.60;59.45
65291;SHT30;51893;59.754;10.110;2024-03-06T14:09:26;5.65;59.30
65291;SHT30;51893;59.754;10.110;2024-03-06T14:11:53;5.67;59.31
65291;SHT30;51893;59.754;10.110;2024-03-06T14:14:21;5.60;59.26
65291;SHT30;51893;59.754;10.110;2024-03-06T14:16:48;5.61;59.22
65291;SHT30;51893;59.754;10.110;2024-03-06T14:19:15;5.60;59.41
65291;SHT30;51893;59.754;10.110;2024-03-06T14:21:42;5.62;59.43
65291;SHT30;51893;59.754;10.110;2024-03-06T14:24:09;5.68;59.91
65291;SHT30;51893;59.754;10.110;2024-03-06T14:26:37;5.68;59.13
65291;SHT30;51893;59.754;10.110;2024-03-06T14:29:05;5.64;58.34
65291;SHT30;51893;59.754;10.110;2024-03-06T14:31:34;5.65;59.04
65291;SHT30;51893;59.754;10.110;2024-03-06T14:34:02;5.73;58.90
65291;SHT30;51893;59.754;10.110;2024-03-06T14:36:32;5.75;58.85
65291;SHT30;51893;59.754;10.110;2024-03-06T14:39:01;5.72;58.36
65291;SHT30;51893;59.754;10.110;2024-03-06T14:41:29;5.71;58.59
65291;SHT30;51893;59.754;10.110;2024-03-06T14:43:57;5.70;58.86
65291;SHT30;51893;59.754;10.110;2024-03-06T14:46:24;5.67;59.07
65291;SHT30;51893;59.754;10.110;2024-03-06T14:48:51;5.68;59.24
65291;SHT30;51893;59.754;10.110;2024-03-06T14:51:18;5.71;59.26
65291;SHT30;51893;59.754;10.110;2024-03-06T14:53:45;5.70;58.58
65291;SHT30;51893;59.754;10.110;2024-03-06T14:56:13;5.73;58.78
65291;SHT30;51893;59.754;10.110;2024-03-06T14:58:40;5.78;58.69
65291;SHT30;51893;59.754;10.110;2024-03-06T15:01:07;5.82;59.25
65291;SHT30;51893;59.754;10.110;2024-03-06T15:03:34;5.85;59.06
65291;SHT30;51893;59.754;10.110;2024-03-06T15:06:01;5.82;58.74
65291;SHT30;51893;59.754;10.110;2024-03-06T15:08:29;5.79;58.53
65291;SHT30;51893;59.754;10.110;2024-03-06T15:10:56;5.76;58.45
65291;SHT30;51893;59.754;10.110;2024-03-06T15:13:24;5.75;58.55
65291;SHT30;51893;59.754;10.110;2024-03-06T15:15:52;5.71;58.16
65291;SHT30;51893;59.754;10.110;2024-03-06T15:18:19;5.70;58.54
65291;SHT30;51893;59.754;10.110;2024-03-06T15:20:47;5.72;58.54
65291;SHT30;51893;59.754;10.110;2024-03-06T15:23:14;5.72;58.95
65291;SHT30;51893;59.754;10.110;2024-03-06T15:25:44;5.72;58.66
65291;SHT30;51893;59.754;10.110;2024-03-06T15:28:11;5.68;58.38
65291;SHT30;51893;59.754;10.110;2024-03-06T15:30:38;5.64;58.54
65291;SHT30;51893;59.754;10.110;2024-03-06T15:33:05;5.61;58.66
65291;SHT30;51893;59.754;10.110;2024-03-06T15:35:33;5.59;59.07
65291;SHT30;51893;59.754;10.110;2024-03-06T15:38:01;5.55;59.28
65291;SHT30;51893;59.754;10.110;2024-03-06T15:40:28;5.53;59.46
65291;SHT30;51893;59.754;10.110;2024-03-06T15:42:55;5.49;59.55
65291;SHT30;51893;59.754;10.110;2024-03-06T15:45:23;5.46;60.00
65291;SHT30;51893;59.754;10.110;2024-03-06T15:47:50;5.47;60.11